createdAt,value
2018-07-26T00:00:43.792Z,26.21
2018-07-26T00:03:14.606Z,26.29
2018-07-26T00:05:45.466Z,26.18
2018-07-26T00:08:16.498Z,26.12
2018-07-26T00:10:47.448Z,26.12
2018-07-26T00:13:18.495Z,26.16
2018-07-26T00:15:49.469Z,26.00
2018-07-26T00:18:20.511Z,26.02
2018-07-26T00:20:51.473Z,25.99
2018-07-26T00:23:22.537Z,25.99
2018-07-26T00:25:53.468Z,25.95
2018-07-26T00:28:24.477Z,25.98
2018-07-26T00:30:55.466Z,25.89
2018-07-26T00:33:26.467Z,25.84
2018-07-26T00:35:57.650Z,25.89
2018-07-26T00:38:28.537Z,25.75
2018-07-26T00:40:59.478Z,25.60
2018-07-26T00:43:30.493Z,25.50
2018-07-26T00:46:01.499Z,25.51
2018-07-26T00:48:32.441Z,25.40
2018-07-26T00:51:03.457Z,25.39
2018-07-26T00:53:34.463Z,25.37
2018-07-26T00:56:05.468Z,25.25
2018-07-26T00:58:36.481Z,25.31
2018-07-26T01:01:07.437Z,25.16
2018-07-26T01:03:38.482Z,25.25
2018-07-26T01:06:09.694Z,25.27
2018-07-26T01:08:40.555Z,25.22
2018-07-26T01:11:11.469Z,25.18
2018-07-26T01:13:42.452Z,25.27
2018-07-26T01:16:13.478Z,25.21
2018-07-26T01:18:44.481Z,25.13
2018-07-26T01:21:15.458Z,25.03
2018-07-26T01:23:46.463Z,25.00
2018-07-26T01:26:17.573Z,25.01
2018-07-26T01:28:48.468Z,25.05
2018-07-26T01:31:19.490Z,25.01
2018-07-26T01:33:50.462Z,25.12
2018-07-26T01:36:21.415Z,25.19
2018-07-26T01:38:52.490Z,25.13
2018-07-26T01:41:23.525Z,25.21
2018-07-26T01:44:16.471Z,25.18
2018-07-26T01:46:47.475Z,25.17
2018-07-26T01:49:18.801Z,25.20
2018-07-26T01:51:49.561Z,25.19
2018-07-26T01:54:20.488Z,25.12
2018-07-26T01:56:51.444Z,25.12
2018-07-26T01:59:22.485Z,25.15
2018-07-26T02:01:53.469Z,25.14
2018-07-26T02:04:24.486Z,25.19
2018-07-26T02:06:55.477Z,25.18
2018-07-26T02:09:26.470Z,25.15
2018-07-26T02:11:57.481Z,25.04
2018-07-26T02:14:34.622Z,25.01
2018-07-26T02:17:05.529Z,25.01
2018-07-26T02:19:36.508Z,25.08
2018-07-26T02:22:07.472Z,25.13
2018-07-26T02:24:38.461Z,25.11
2018-07-26T02:27:09.472Z,25.08
2018-07-26T02:29:40.488Z,25.02
2018-07-26T02:32:11.523Z,25.01
2018-07-26T02:34:42.499Z,24.93
2018-07-26T02:37:13.497Z,24.97
2018-07-26T02:39:44.491Z,24.94
2018-07-26T02:42:15.485Z,24.87
2018-07-26T02:44:46.480Z,24.87
2018-07-26T02:47:17.461Z,24.87
2018-07-26T02:49:48.486Z,24.84
2018-07-26T02:52:19.481Z,24.89
2018-07-26T02:54:50.472Z,24.91
2018-07-26T02:57:21.722Z,24.91
2018-07-26T02:59:52.567Z,24.87
2018-07-26T03:02:23.485Z,24.82
2018-07-26T03:04:54.704Z,24.78
2018-07-26T03:07:25.596Z,24.72
2018-07-26T03:09:56.488Z,24.74
2018-07-26T03:12:27.554Z,24.74
2018-07-26T03:14:58.476Z,24.73
2018-07-26T03:17:29.494Z,24.71
2018-07-26T03:20:00.457Z,24.67
2018-07-26T03:22:31.550Z,24.64
2018-07-26T03:25:02.511Z,24.57
2018-07-26T03:27:33.495Z,24.58
2018-07-26T03:30:04.525Z,24.56
2018-07-26T03:32:35.456Z,24.56
2018-07-26T03:35:06.472Z,24.49
2018-07-26T03:37:37.453Z,24.43
2018-07-26T03:40:08.681Z,24.46
2018-07-26T03:42:39.461Z,24.41
2018-07-26T03:45:10.484Z,24.47
2018-07-26T03:47:41.484Z,24.37
2018-07-26T03:50:12.470Z,24.30
2018-07-26T03:52:43.492Z,24.33
2018-07-26T03:55:14.481Z,24.31
2018-07-26T03:57:45.488Z,24.30
2018-07-26T04:00:16.488Z,24.30
2018-07-26T04:02:47.468Z,24.30
2018-07-26T04:05:18.641Z,24.28
2018-07-26T04:07:49.449Z,24.27
2018-07-26T04:10:20.441Z,24.26
2018-07-26T04:12:51.445Z,24.15
2018-07-26T04:15:22.472Z,24.17
2018-07-26T04:17:58.349Z,24.16
2018-07-26T04:20:29.417Z,24.16
2018-07-26T04:23:00.476Z,24.15
2018-07-26T04:25:32.238Z,24.06
2018-07-26T04:28:03.532Z,24.06
2018-07-26T04:30:34.477Z,24.17
2018-07-26T04:33:05.468Z,24.04
2018-07-26T04:35:36.481Z,24.15
2018-07-26T04:38:07.424Z,24.23
2018-07-26T04:40:38.460Z,24.08
2018-07-26T04:43:09.472Z,24.22
2018-07-26T04:45:40.495Z,24.27
2018-07-26T04:48:11.440Z,24.20
2018-07-26T04:50:42.444Z,24.36
2018-07-26T04:53:13.426Z,24.28
2018-07-26T04:55:44.461Z,24.39
2018-07-26T04:58:15.461Z,24.33
2018-07-26T05:00:46.479Z,24.36
2018-07-26T05:03:17.474Z,24.44
2018-07-26T05:05:48.506Z,24.47
2018-07-26T05:08:19.461Z,24.31
2018-07-26T05:10:50.557Z,24.44
2018-07-26T05:13:21.482Z,24.53
2018-07-26T05:15:52.465Z,24.50
2018-07-26T05:18:23.427Z,24.43
2018-07-26T05:20:54.517Z,24.52
2018-07-26T05:23:25.518Z,24.57
2018-07-26T05:25:56.484Z,24.68
2018-07-26T05:28:27.466Z,24.76
2018-07-26T05:30:58.496Z,24.72
2018-07-26T05:33:29.461Z,24.78
2018-07-26T05:36:00.463Z,24.80
2018-07-26T05:38:31.462Z,24.93
2018-07-26T05:41:02.478Z,25.12
2018-07-26T05:43:33.479Z,25.27
2018-07-26T05:46:04.513Z,24.97
2018-07-26T05:48:35.487Z,25.19
2018-07-26T05:51:06.490Z,25.38
2018-07-26T05:53:37.454Z,25.41
2018-07-26T05:56:08.508Z,25.40
2018-07-26T05:58:39.496Z,25.48
2018-07-26T06:01:10.520Z,25.49
2018-07-26T06:03:41.612Z,25.73
2018-07-26T06:06:12.548Z,25.78
2018-07-26T06:08:43.517Z,25.81
2018-07-26T06:11:14.765Z,25.80
2018-07-26T06:13:45.549Z,25.87
2018-07-26T06:16:16.496Z,26.08
2018-07-26T06:18:48.030Z,25.98
2018-07-26T06:21:19.285Z,26.02
2018-07-26T06:23:50.515Z,26.17
2018-07-26T06:26:21.473Z,26.36
2018-07-26T06:28:52.482Z,26.36
2018-07-26T06:31:23.510Z,26.66
2018-07-26T06:33:54.637Z,26.76
2018-07-26T06:36:25.532Z,26.73
2018-07-26T06:38:56.448Z,26.77
2018-07-26T06:41:27.514Z,26.81
2018-07-26T06:43:58.447Z,27.12
2018-07-26T06:46:29.499Z,26.79
2018-07-26T06:49:00.474Z,27.03
2018-07-26T06:51:31.472Z,26.82
2018-07-26T06:54:02.462Z,27.08
2018-07-26T06:56:33.493Z,27.00
2018-07-26T06:59:04.498Z,27.10
2018-07-26T07:01:35.469Z,27.16
2018-07-26T07:04:06.470Z,27.13
2018-07-26T07:06:37.474Z,27.30
2018-07-26T07:09:12.010Z,27.39
2018-07-26T07:11:43.509Z,27.26
2018-07-26T07:14:14.532Z,27.57
2018-07-26T07:16:45.476Z,27.61
2018-07-26T07:19:16.481Z,27.68
2018-07-26T07:21:47.452Z,27.69
2018-07-26T07:24:22.666Z,27.95
2018-07-26T07:26:54.385Z,27.95
2018-07-26T07:29:25.514Z,27.95
2018-07-26T07:31:56.478Z,28.19
2018-07-26T07:34:27.413Z,28.05
2018-07-26T07:36:59.297Z,28.06
2018-07-26T07:39:30.350Z,28.42
2018-07-26T07:42:01.353Z,28.47
2018-07-26T07:44:32.415Z,28.51
2018-07-26T07:47:03.519Z,28.36
2018-07-26T07:49:34.474Z,28.50
2018-07-26T07:52:05.289Z,28.73
2018-07-26T07:54:36.342Z,28.73
2018-07-26T07:57:07.620Z,28.77
2018-07-26T07:59:38.578Z,28.98
2018-07-26T08:02:09.476Z,29.10
2018-07-26T08:04:40.458Z,29.17
2018-07-26T08:07:11.457Z,29.25
2018-07-26T08:09:42.454Z,29.24
2018-07-26T08:12:13.476Z,29.51
2018-07-26T08:14:44.760Z,29.63
2018-07-26T08:17:15.552Z,29.55
2018-07-26T08:19:46.448Z,29.67
2018-07-26T08:22:17.449Z,29.60
2018-07-26T08:24:49.440Z,29.88
2018-07-26T08:27:20.510Z,30.07
2018-07-26T08:29:51.557Z,30.19
2018-07-26T08:32:22.488Z,30.50
2018-07-26T08:34:53.641Z,30.97
2018-07-26T08:37:24.497Z,31.50
2018-07-26T08:39:55.469Z,31.72
2018-07-26T08:42:26.497Z,31.71
2018-07-26T08:44:57.441Z,32.28
2018-07-26T08:47:28.508Z,32.09
2018-07-26T08:49:59.480Z,31.90
2018-07-26T08:52:30.444Z,32.73
2018-07-26T08:55:01.417Z,32.83
2018-07-26T08:57:32.471Z,32.71
2018-07-26T09:00:03.450Z,33.05
2018-07-26T09:02:34.510Z,33.55
2018-07-26T09:05:05.735Z,33.97
2018-07-26T09:07:36.608Z,33.29
2018-07-26T09:10:07.484Z,34.07
2018-07-26T09:12:38.469Z,34.41
2018-07-26T09:15:09.417Z,34.52
2018-07-26T09:17:40.478Z,33.62
2018-07-26T09:20:11.498Z,34.50
2018-07-26T09:22:42.514Z,34.86
2018-07-26T09:25:13.503Z,34.47
2018-07-26T09:27:44.475Z,33.88
2018-07-26T09:30:15.465Z,35.21
2018-07-26T09:32:46.486Z,35.73
2018-07-26T09:35:17.458Z,35.18
2018-07-26T09:37:48.502Z,34.21
2018-07-26T09:40:19.492Z,35.16
2018-07-26T09:42:50.501Z,35.14
2018-07-26T09:45:21.518Z,35.69
2018-07-26T09:47:52.535Z,35.47
2018-07-26T09:50:23.493Z,35.22
2018-07-26T09:52:54.467Z,36.28
2018-07-26T09:55:25.474Z,35.55
2018-07-26T09:57:56.627Z,36.43
2018-07-26T10:00:32.637Z,36.66
2018-07-26T10:03:03.892Z,35.95
2018-07-26T10:05:34.679Z,35.72
2018-07-26T10:08:05.601Z,36.54
2018-07-26T10:10:36.465Z,36.15
2018-07-26T10:13:07.465Z,37.12
2018-07-26T10:15:38.453Z,37.30
2018-07-26T10:18:09.441Z,36.85
2018-07-26T10:20:40.481Z,37.28
2018-07-26T10:23:11.494Z,37.15
2018-07-26T10:25:42.485Z,36.68
2018-07-26T10:28:13.541Z,36.30
2018-07-26T10:30:44.531Z,35.87
2018-07-26T10:33:15.464Z,36.66
2018-07-26T10:35:46.457Z,37.09
2018-07-26T10:38:17.464Z,37.33
2018-07-26T10:40:48.518Z,36.98
2018-07-26T10:43:19.512Z,37.00
2018-07-26T10:45:50.478Z,37.51
2018-07-26T10:48:21.505Z,37.47
2018-07-26T10:50:52.497Z,36.97
2018-07-26T10:53:23.450Z,37.95
2018-07-26T10:55:54.468Z,37.52
2018-07-26T10:58:25.503Z,37.90
2018-07-26T11:00:56.471Z,37.04
2018-07-26T11:03:27.538Z,38.26
2018-07-26T11:05:58.466Z,38.13
2018-07-26T11:08:29.489Z,38.23
2018-07-26T11:11:00.530Z,37.55
2018-07-26T11:13:31.465Z,37.21
2018-07-26T11:16:02.497Z,37.02
2018-07-26T11:18:33.448Z,37.59
2018-07-26T11:21:04.460Z,37.94
2018-07-26T11:23:35.457Z,37.31
2018-07-26T11:26:06.488Z,37.87
2018-07-26T11:28:37.485Z,38.43
2018-07-26T11:31:08.587Z,38.70
2018-07-26T11:33:39.476Z,38.40
2018-07-26T11:36:10.401Z,37.86
2018-07-26T11:38:41.406Z,38.62
2018-07-26T11:41:12.433Z,38.60
2018-07-26T11:43:43.517Z,38.75
2018-07-26T11:46:14.463Z,38.22
2018-07-26T11:48:45.443Z,37.52
2018-07-26T11:51:16.467Z,38.41
2018-07-26T11:53:47.525Z,38.15
2018-07-26T11:56:18.843Z,38.52
2018-07-26T11:58:49.286Z,39.32
2018-07-26T12:01:20.373Z,38.94
2018-07-26T12:03:51.407Z,38.01
2018-07-26T12:06:22.422Z,37.87
2018-07-26T12:08:53.541Z,38.02
2018-07-26T12:11:24.475Z,37.10
2018-07-26T12:13:55.485Z,38.40
2018-07-26T12:16:26.471Z,38.45
2018-07-26T12:18:57.823Z,38.45
2018-07-26T12:21:28.280Z,38.18
2018-07-26T12:23:59.369Z,38.27
2018-07-26T12:26:30.464Z,39.31
2018-07-26T12:29:01.494Z,39.58
2018-07-26T12:31:32.479Z,38.82
2018-07-26T12:34:03.458Z,39.70
2018-07-26T12:36:34.466Z,39.70
2018-07-26T12:39:09.204Z,39.90
2018-07-26T12:41:40.394Z,40.18
2018-07-26T12:44:11.476Z,38.77
2018-07-26T12:46:42.465Z,39.56
2018-07-26T12:49:13.465Z,39.60
2018-07-26T12:51:44.505Z,39.67
2018-07-26T12:54:15.506Z,39.98
2018-07-26T12:56:46.460Z,40.13
2018-07-26T12:59:17.496Z,40.28
2018-07-26T13:01:48.565Z,39.01
2018-07-26T13:04:19.511Z,38.78
2018-07-26T13:06:50.510Z,38.13
2018-07-26T13:09:21.480Z,38.53
2018-07-26T13:11:52.497Z,39.13
2018-07-26T13:14:23.469Z,38.88
2018-07-26T13:16:54.449Z,39.15
2018-07-26T13:19:25.510Z,39.34
2018-07-26T13:21:56.486Z,39.30
2018-07-26T13:24:27.817Z,39.64
2018-07-26T13:26:58.284Z,38.97
2018-07-26T13:29:29.397Z,38.19
2018-07-26T13:32:00.546Z,38.19
2018-07-26T13:34:31.484Z,38.35
2018-07-26T13:37:02.458Z,39.93
2018-07-26T13:39:33.496Z,38.12
2018-07-26T13:42:04.502Z,37.17
2018-07-26T13:44:35.482Z,36.46
2018-07-26T13:47:06.630Z,36.59
2018-07-26T13:49:37.504Z,37.19
2018-07-26T13:52:09.202Z,36.57
2018-07-26T13:54:40.368Z,37.06
2018-07-26T13:57:11.382Z,38.39
2018-07-26T13:59:42.470Z,38.82
2018-07-26T14:02:13.497Z,37.23
2018-07-26T14:04:44.489Z,36.10
2018-07-26T14:07:15.482Z,36.62
2018-07-26T14:09:46.504Z,37.03
2018-07-26T14:12:17.492Z,36.70
2018-07-26T14:14:48.461Z,36.48
2018-07-26T14:17:19.475Z,37.45
2018-07-26T14:19:50.460Z,37.71
2018-07-26T14:22:21.491Z,37.46
2018-07-26T14:24:53.296Z,37.43
2018-07-26T14:27:24.525Z,38.49
2018-07-26T14:29:55.482Z,38.46
2018-07-26T14:32:26.500Z,38.75
2018-07-26T14:34:57.496Z,38.50
2018-07-26T14:37:28.520Z,38.69
2018-07-26T14:39:59.472Z,38.64
2018-07-26T14:42:30.506Z,38.15
2018-07-26T14:45:01.510Z,37.80
2018-07-26T14:47:33.353Z,38.18
2018-07-26T14:50:04.377Z,38.16
2018-07-26T14:52:35.365Z,37.16
2018-07-26T14:55:06.406Z,37.68
2018-07-26T14:57:37.521Z,37.70
2018-07-26T15:00:08.507Z,36.59
2018-07-26T15:02:39.553Z,37.07
2018-07-26T15:05:10.546Z,36.89
2018-07-26T15:07:41.517Z,37.79
2018-07-26T15:10:12.487Z,36.83
2018-07-26T15:12:43.562Z,37.19
2018-07-26T15:15:14.472Z,37.26
2018-07-26T15:17:45.485Z,37.04
2018-07-26T15:20:16.508Z,35.99
2018-07-26T15:22:47.566Z,36.31
2018-07-26T15:25:23.696Z,36.17
2018-07-26T15:27:56.300Z,36.14
2018-07-26T15:30:27.386Z,35.96
2018-07-26T15:32:58.532Z,36.34
2018-07-26T15:35:29.474Z,36.71
2018-07-26T15:38:00.810Z,36.54
2018-07-26T15:40:31.239Z,36.19
2018-07-26T15:43:02.361Z,36.28
2018-07-26T15:45:33.360Z,35.86
2018-07-26T15:48:04.882Z,35.48
2018-07-26T15:50:36.249Z,35.68
2018-07-26T15:53:07.410Z,35.03
2018-07-26T15:55:38.589Z,35.08
2018-07-26T15:58:09.526Z,34.89
2018-07-26T16:00:40.506Z,34.79
2018-07-26T16:03:11.513Z,34.43
2018-07-26T16:05:42.508Z,34.21
2018-07-26T16:08:13.678Z,34.38
2018-07-26T16:10:44.578Z,34.55
2018-07-26T16:13:15.497Z,34.53
2018-07-26T16:15:46.501Z,34.59
2018-07-26T16:18:17.510Z,34.66
2018-07-26T16:20:48.523Z,34.69
2018-07-26T16:23:19.526Z,34.59
2018-07-26T16:25:50.488Z,34.50
2018-07-26T16:28:21.468Z,34.72
2018-07-26T16:30:52.492Z,34.60
2018-07-26T16:33:23.451Z,34.68
2018-07-26T16:35:54.509Z,34.72
2018-07-26T16:38:25.474Z,34.63
2018-07-26T16:40:56.489Z,34.51
2018-07-26T16:43:27.485Z,34.67
2018-07-26T16:45:58.506Z,34.60
2018-07-26T16:48:29.485Z,34.44
2018-07-26T16:51:00.542Z,34.63
2018-07-26T16:53:31.497Z,34.48
2018-07-26T16:56:02.508Z,34.59
2018-07-26T16:58:33.656Z,34.58
2018-07-26T17:01:04.553Z,34.21
2018-07-26T17:03:35.499Z,34.33
2018-07-26T17:06:06.688Z,34.12
2018-07-26T17:08:37.690Z,34.31
2018-07-26T17:11:09.337Z,34.31
2018-07-26T17:13:40.370Z,34.16
2018-07-26T17:16:11.387Z,34.23
2018-07-26T17:18:42.502Z,34.17
2018-07-26T17:21:13.501Z,34.07
2018-07-26T17:23:44.510Z,34.08
2018-07-26T17:26:15.518Z,34.11
2018-07-26T17:28:46.501Z,33.88
2018-07-26T17:31:17.523Z,33.86
2018-07-26T17:33:48.492Z,33.83
2018-07-26T17:36:19.554Z,33.85
2018-07-26T17:38:50.545Z,33.74
2018-07-26T17:41:21.525Z,33.65
2018-07-26T17:43:52.598Z,33.64
2018-07-26T17:46:23.505Z,33.61
2018-07-26T17:48:54.534Z,33.53
2018-07-26T17:51:25.516Z,33.52
2018-07-26T17:53:56.484Z,33.43
2018-07-26T17:56:27.484Z,33.39
2018-07-26T17:58:58.497Z,33.38
2018-07-26T18:01:29.501Z,33.23
2018-07-26T18:04:00.477Z,33.21
2018-07-26T18:06:31.486Z,33.09
2018-07-26T18:09:02.632Z,33.04
2018-07-26T18:11:33.549Z,32.97
2018-07-26T18:14:04.513Z,32.91
2018-07-26T18:16:35.502Z,32.83
2018-07-26T18:19:06.618Z,32.74
2018-07-26T18:21:37.521Z,32.68
2018-07-26T18:24:08.694Z,32.65
2018-07-26T18:26:39.517Z,32.58
2018-07-26T18:29:10.521Z,32.49
2018-07-26T18:31:41.668Z,32.50
2018-07-26T18:34:12.481Z,32.40
2018-07-26T18:36:43.586Z,32.33
2018-07-26T18:39:14.531Z,32.19
2018-07-26T18:41:45.518Z,32.18
2018-07-26T18:44:16.494Z,32.06
2018-07-26T18:46:47.506Z,32.02
2018-07-26T18:49:18.496Z,31.95
2018-07-26T18:51:49.493Z,31.90
2018-07-26T18:54:20.481Z,31.81
2018-07-26T18:56:51.505Z,31.75
2018-07-26T18:59:22.487Z,31.62
2018-07-26T19:01:53.539Z,31.60
2018-07-26T19:04:24.609Z,31.56
2018-07-26T19:06:55.501Z,31.45
2018-07-26T19:09:26.522Z,31.44
2018-07-26T19:11:57.578Z,31.35
2018-07-26T19:14:28.554Z,31.26
2018-07-26T19:16:59.515Z,31.24
2018-07-26T19:19:30.504Z,31.14
2018-07-26T19:22:01.459Z,31.06
2018-07-26T19:24:32.456Z,30.99
2018-07-26T19:27:03.812Z,30.98
2018-07-26T19:29:34.665Z,30.86
2018-07-26T19:32:05.566Z,30.84
2018-07-26T19:34:36.497Z,30.76
2018-07-26T19:37:07.481Z,30.76
2018-07-26T19:39:38.498Z,30.72
2018-07-26T19:42:09.546Z,30.60
2018-07-26T19:44:40.479Z,30.58
2018-07-26T19:47:11.501Z,30.57
2018-07-26T19:49:42.565Z,30.55
2018-07-26T19:52:13.574Z,30.44
2018-07-26T19:54:44.548Z,30.41
2018-07-26T19:57:15.534Z,30.39
2018-07-26T19:59:46.500Z,30.32
2018-07-26T20:02:17.500Z,30.26
2018-07-26T20:04:48.513Z,30.13
2018-07-26T20:07:19.563Z,30.08
2018-07-26T20:09:51.216Z,30.04
2018-07-26T20:12:22.566Z,30.03
2018-07-26T20:14:53.504Z,29.80
2018-07-26T20:17:24.516Z,29.83
2018-07-26T20:19:55.514Z,29.81
2018-07-26T20:22:27.436Z,29.69
2018-07-26T20:24:58.455Z,29.68
2018-07-26T20:27:29.521Z,29.65
2018-07-26T20:30:00.471Z,29.61
2018-07-26T20:32:31.468Z,29.54
2018-07-26T20:35:02.475Z,29.48
2018-07-26T20:37:33.505Z,29.43
2018-07-26T20:40:04.517Z,29.39
2018-07-26T20:42:35.501Z,29.33
2018-07-26T20:45:09.790Z,29.32
2018-07-26T20:47:40.699Z,29.23
2018-07-26T20:50:11.597Z,29.19
2018-07-26T20:52:42.493Z,29.16
2018-07-26T20:55:13.494Z,29.06
2018-07-26T20:57:44.483Z,29.06
2018-07-26T21:00:15.472Z,29.01
2018-07-26T21:02:46.501Z,29.01
2018-07-26T21:05:17.542Z,28.98
2018-07-26T21:07:48.477Z,28.95
2018-07-26T21:10:19.461Z,28.98
2018-07-26T21:12:50.536Z,28.97
2018-07-26T21:15:21.465Z,28.91
2018-07-26T21:17:52.470Z,28.92
2018-07-26T21:20:23.522Z,28.91
2018-07-26T21:22:54.496Z,28.89
2018-07-26T21:25:25.486Z,28.86
2018-07-26T21:27:56.495Z,28.80
2018-07-26T21:30:27.483Z,28.69
2018-07-26T21:32:58.522Z,28.70
2018-07-26T21:35:29.528Z,28.70
2018-07-26T21:38:00.546Z,28.65
2018-07-26T21:40:31.465Z,28.60
2018-07-26T21:43:02.493Z,28.52
2018-07-26T21:45:33.499Z,28.50
2018-07-26T21:48:04.483Z,28.39
2018-07-26T21:50:35.465Z,28.38
2018-07-26T21:53:07.359Z,28.34
2018-07-26T21:55:38.395Z,28.25
2018-07-26T21:58:09.454Z,28.28
2018-07-26T22:00:45.736Z,28.21
2018-07-26T22:03:16.579Z,28.13
2018-07-26T22:05:47.525Z,27.90
2018-07-26T22:08:18.467Z,27.96
2018-07-26T22:10:50.293Z,27.87
2018-07-26T22:13:22.295Z,27.90
2018-07-26T22:15:53.588Z,27.79
2018-07-26T22:18:24.588Z,27.82
2018-07-26T22:20:55.523Z,27.75
2018-07-26T22:23:26.496Z,27.73
2018-07-26T22:25:57.464Z,27.68
2018-07-26T22:28:28.500Z,27.64
2018-07-26T22:30:59.445Z,27.42
2018-07-26T22:33:30.490Z,27.29
2018-07-26T22:36:01.497Z,27.19
2018-07-26T22:38:32.899Z,27.09
2018-07-26T22:41:03.705Z,26.91
2018-07-26T22:43:34.611Z,26.99
2018-07-26T22:46:05.530Z,26.92
2018-07-26T22:48:36.489Z,26.89
2018-07-26T22:51:07.498Z,26.92
2018-07-26T22:53:38.478Z,26.90
2018-07-26T22:56:09.462Z,26.86
2018-07-26T22:58:40.453Z,26.86
2018-07-26T23:01:11.446Z,26.82
2018-07-26T23:03:42.473Z,26.86
2018-07-26T23:06:13.470Z,26.88
2018-07-26T23:08:44.541Z,26.73
2018-07-26T23:11:15.502Z,26.79
2018-07-26T23:13:46.589Z,26.65
2018-07-26T23:16:17.491Z,26.58
2018-07-26T23:18:48.504Z,26.57
2018-07-26T23:21:19.476Z,26.45
2018-07-26T23:23:50.533Z,26.39
2018-07-26T23:26:21.466Z,26.34
2018-07-26T23:28:52.560Z,26.35
2018-07-26T23:31:23.457Z,26.16
2018-07-26T23:33:54.486Z,26.27
2018-07-26T23:36:25.492Z,26.20
2018-07-26T23:38:56.499Z,26.19
2018-07-26T23:41:27.736Z,25.99
2018-07-26T23:43:58.573Z,26.00
2018-07-26T23:46:29.472Z,25.97
2018-07-26T23:49:00.507Z,25.99
2018-07-26T23:51:31.637Z,25.88
2018-07-26T23:54:02.507Z,25.90
2018-07-26T23:56:33.565Z,25.82
2018-07-26T23:59:11.631Z,25.80
